sensor_id;sensor_type;location;lat;lon;timestamp;P1;durP1;ratioP1;P2;durP2;ratioP2
75427;SDS011;64008;55.612;37.698;2023-04-25T00:00:44;7.78;;;2.70;;
75427;SDS011;64008;55.612;37.698;2023-04-25T00:03:09;8.07;;;4.45;;
75427;SDS011;64008;55.612;37.698;2023-04-25T00:05:35;9.43;;;3.40;;
75427;SDS011;64008;55.612;37.698;2023-04-25T00:08:02;8.43;;;3.38;;
75427;SDS011;64008;55.612;37.698;2023-04-25T00:10:28;7.45;;;3.25;;
75427;SDS011;64008;55.612;37.698;2023-04-25T00:12:54;8.48;;;4.22;;
75427;SDS011;64008;55.612;37.698;2023-04-25T00:15:19;8.88;;;3.88;;
75427;SDS011;64008;55.612;37.698;2023-04-25T00:17:45;9.10;;;3.42;;
75427;SDS011;64008;55.612;37.698;2023-04-25T00:20:10;10.32;;;3.65;;
75427;SDS011;64008;55.612;37.698;2023-04-25T00:22:37;9.90;;;4.63;;
75427;SDS011;64008;55.612;37.698;2023-04-25T00:25:06;10.18;;;3.63;;
75427;SDS011;64008;55.612;37.698;2023-04-25T00:27:32;9.65;;;4.28;;
75427;SDS011;64008;55.612;37.698;2023-04-25T00:29:58;11.80;;;3.92;;
75427;SDS011;64008;55.612;37.698;2023-04-25T00:32:23;13.63;;;4.10;;
75427;SDS011;64008;55.612;37.698;2023-04-25T00:34:49;13.13;;;4.57;;
75427;SDS011;64008;55.612;37.698;2023-04-25T00:37:14;7.80;;;3.95;;
75427;SDS011;64008;55.612;37.698;2023-04-25T00:39:40;12.75;;;3.92;;
75427;SDS011;64008;55.612;37.698;2023-04-25T00:42:05;11.15;;;4.38;;
75427;SDS011;64008;55.612;37.698;2023-04-25T00:44:32;11.35;;;4.18;;
75427;SDS011;64008;55.612;37.698;2023-04-25T00:47:01;11.07;;;4.28;;
75427;SDS011;64008;55.612;37.698;2023-04-25T00:49:27;9.00;;;3.80;;
75427;SDS011;64008;55.612;37.698;2023-04-25T00:51:52;13.40;;;3.90;;
75427;SDS011;64008;55.612;37.698;2023-04-25T00:54:18;16.10;;;4.38;;
75427;SDS011;64008;55.612;37.698;2023-04-25T00:56:44;8.85;;;3.80;;
75427;SDS011;64008;55.612;37.698;2023-04-25T00:59:10;8.63;;;3.78;;
75427;SDS011;64008;55.612;37.698;2023-04-25T01:01:36;9.45;;;3.45;;
75427;SDS011;64008;55.612;37.698;2023-04-25T01:04:02;11.55;;;4.30;;
75427;SDS011;64008;55.612;37.698;2023-04-25T01:06:28;9.85;;;4.50;;
75427;SDS011;64008;55.612;37.698;2023-04-25T01:08:53;9.63;;;3.92;;
75427;SDS011;64008;55.612;37.698;2023-04-25T01:11:19;8.75;;;4.10;;
75427;SDS011;64008;55.612;37.698;2023-04-25T01:13:45;10.05;;;4.18;;
75427;SDS011;64008;55.612;37.698;2023-04-25T01:16:10;20.80;;;6.57;;
75427;SDS011;64008;55.612;37.698;2023-04-25T01:18:37;9.70;;;4.57;;
75427;SDS011;64008;55.612;37.698;2023-04-25T01:21:11;9.65;;;4.38;;
75427;SDS011;64008;55.612;37.698;2023-04-25T01:23:40;12.23;;;4.35;;
75427;SDS011;64008;55.612;37.698;2023-04-25T01:26:10;10.13;;;3.83;;
75427;SDS011;64008;55.612;37.698;2023-04-25T01:28:36;9.77;;;4.07;;
75427;SDS011;64008;55.612;37.698;2023-04-25T01:31:06;8.55;;;4.28;;
75427;SDS011;64008;55.612;37.698;2023-04-25T01:33:32;13.05;;;4.30;;
75427;SDS011;64008;55.612;37.698;2023-04-25T01:35:57;7.68;;;4.00;;
75427;SDS011;64008;55.612;37.698;2023-04-25T01:38:23;11.02;;;4.90;;
75427;SDS011;64008;55.612;37.698;2023-04-25T01:40:49;12.40;;;4.47;;
75427;SDS011;64008;55.612;37.698;2023-04-25T01:43:17;13.73;;;4.25;;
75427;SDS011;64008;55.612;37.698;2023-04-25T01:45:42;9.90;;;4.32;;
75427;SDS011;64008;55.612;37.698;2023-04-25T01:48:09;8.48;;;4.25;;
75427;SDS011;64008;55.612;37.698;2023-04-25T01:50:37;14.20;;;4.50;;
75427;SDS011;64008;55.612;37.698;2023-04-25T01:53:04;11.90;;;4.20;;
75427;SDS011;64008;55.612;37.698;2023-04-25T01:55:29;13.52;;;4.22;;
75427;SDS011;64008;55.612;37.698;2023-04-25T01:57:55;13.95;;;5.00;;
75427;SDS011;64008;55.612;37.698;2023-04-25T02:00:21;12.70;;;4.78;;
75427;SDS011;64008;55.612;37.698;2023-04-25T02:02:46;10.45;;;4.57;;
75427;SDS011;64008;55.612;37.698;2023-04-25T02:05:13;9.98;;;4.55;;
75427;SDS011;64008;55.612;37.698;2023-04-25T02:07:38;10.95;;;4.45;;
75427;SDS011;64008;55.612;37.698;2023-04-25T02:10:04;11.43;;;4.60;;
75427;SDS011;64008;55.612;37.698;2023-04-25T02:12:30;11.43;;;4.35;;
75427;SDS011;64008;55.612;37.698;2023-04-25T02:14:56;13.40;;;4.35;;
75427;SDS011;64008;55.612;37.698;2023-04-25T02:17:22;11.70;;;4.95;;
75427;SDS011;64008;55.612;37.698;2023-04-25T02:19:48;13.57;;;4.55;;
75427;SDS011;64008;55.612;37.698;2023-04-25T02:22:13;12.77;;;4.45;;
75427;SDS011;64008;55.612;37.698;2023-04-25T02:24:39;10.32;;;4.75;;
75427;SDS011;64008;55.612;37.698;2023-04-25T02:27:04;9.23;;;4.35;;
75427;SDS011;64008;55.612;37.698;2023-04-25T02:29:30;12.45;;;4.70;;
75427;SDS011;64008;55.612;37.698;2023-04-25T02:31:56;10.32;;;4.97;;
75427;SDS011;64008;55.612;37.698;2023-04-25T02:34:21;8.85;;;4.97;;
75427;SDS011;64008;55.612;37.698;2023-04-25T02:36:47;11.68;;;4.68;;
75427;SDS011;64008;55.612;37.698;2023-04-25T02:39:13;10.85;;;4.55;;
75427;SDS011;64008;55.612;37.698;2023-04-25T02:41:39;8.07;;;4.03;;
75427;SDS011;64008;55.612;37.698;2023-04-25T02:44:04;10.68;;;4.22;;
75427;SDS011;64008;55.612;37.698;2023-04-25T02:46:30;10.90;;;4.97;;
75427;SDS011;64008;55.612;37.698;2023-04-25T02:48:55;7.90;;;4.03;;
75427;SDS011;64008;55.612;37.698;2023-04-25T02:51:21;11.60;;;4.95;;
75427;SDS011;64008;55.612;37.698;2023-04-25T02:53:46;12.27;;;4.15;;
75427;SDS011;64008;55.612;37.698;2023-04-25T02:56:12;9.02;;;4.93;;
75427;SDS011;64008;55.612;37.698;2023-04-25T02:58:37;10.95;;;4.60;;
75427;SDS011;64008;55.612;37.698;2023-04-25T03:01:03;10.77;;;5.65;;
75427;SDS011;64008;55.612;37.698;2023-04-25T03:03:28;12.85;;;5.20;;
75427;SDS011;64008;55.612;37.698;2023-04-25T03:05:54;9.65;;;5.15;;
75427;SDS011;64008;55.612;37.698;2023-04-25T03:08:19;12.25;;;5.05;;
75427;SDS011;64008;55.612;37.698;2023-04-25T03:10:45;11.93;;;5.03;;
75427;SDS011;64008;55.612;37.698;2023-04-25T03:13:11;13.10;;;5.57;;
75427;SDS011;64008;55.612;37.698;2023-04-25T03:15:37;8.90;;;5.05;;
75427;SDS011;64008;55.612;37.698;2023-04-25T03:18:03;12.25;;;6.32;;
75427;SDS011;64008;55.612;37.698;2023-04-25T03:20:29;15.38;;;5.97;;
75427;SDS011;64008;55.612;37.698;2023-04-25T03:22:55;12.07;;;5.10;;
75427;SDS011;64008;55.612;37.698;2023-04-25T03:25:20;15.07;;;5.78;;
75427;SDS011;64008;55.612;37.698;2023-04-25T03:27:46;12.85;;;5.32;;
75427;SDS011;64008;55.612;37.698;2023-04-25T03:30:12;11.30;;;5.28;;
75427;SDS011;64008;55.612;37.698;2023-04-25T03:32:37;12.43;;;5.30;;
75427;SDS011;64008;55.612;37.698;2023-04-25T03:35:03;15.38;;;5.63;;
75427;SDS011;64008;55.612;37.698;2023-04-25T03:37:29;12.10;;;5.65;;
75427;SDS011;64008;55.612;37.698;2023-04-25T03:39:54;17.05;;;8.20;;
75427;SDS011;64008;55.612;37.698;2023-04-25T03:42:20;15.00;;;5.82;;
75427;SDS011;64008;55.612;37.698;2023-04-25T03:44:48;13.82;;;5.90;;
75427;SDS011;64008;55.612;37.698;2023-04-25T03:47:13;12.93;;;5.40;;
75427;SDS011;64008;55.612;37.698;2023-04-25T03:49:39;12.70;;;5.63;;
75427;SDS011;64008;55.612;37.698;2023-04-25T03:52:04;11.20;;;5.00;;
75427;SDS011;64008;55.612;37.698;2023-04-25T03:54:30;12.15;;;5.40;;
75427;SDS011;64008;55.612;37.698;2023-04-25T03:56:56;10.48;;;5.20;;
75427;SDS011;64008;55.612;37.698;2023-04-25T03:59:21;9.93;;;5.05;;
75427;SDS011;64008;55.612;37.698;2023-04-25T04:01:47;10.48;;;5.60;;
75427;SDS011;64008;55.612;37.698;2023-04-25T04:04:12;11.75;;;5.80;;
75427;SDS011;64008;55.612;37.698;2023-04-25T04:06:38;13.88;;;5.35;;
75427;SDS011;64008;55.612;37.698;2023-04-25T04:09:04;11.32;;;5.25;;
75427;SDS011;64008;55.612;37.698;2023-04-25T04:11:33;14.18;;;6.65;;
75427;SDS011;64008;55.612;37.698;2023-04-25T04:14:01;13.70;;;7.30;;
75427;SDS011;64008;55.612;37.698;2023-04-25T04:16:27;10.88;;;4.97;;
75427;SDS011;64008;55.612;37.698;2023-04-25T04:18:52;12.45;;;5.05;;
75427;SDS011;64008;55.612;37.698;2023-04-25T04:21:18;11.05;;;4.32;;
75427;SDS011;64008;55.612;37.698;2023-04-25T04:23:43;14.13;;;5.07;;
75427;SDS011;64008;55.612;37.698;2023-04-25T04:26:09;15.85;;;5.00;;
75427;SDS011;64008;55.612;37.698;2023-04-25T04:28:36;11.40;;;5.35;;
75427;SDS011;64008;55.612;37.698;2023-04-25T04:31:02;8.93;;;4.72;;
75427;SDS011;64008;55.612;37.698;2023-04-25T04:33:28;13.30;;;4.75;;
75427;SDS011;64008;55.612;37.698;2023-04-25T04:35:55;9.85;;;5.50;;
75427;SDS011;64008;55.612;37.698;2023-04-25T04:38:21;10.73;;;4.90;;
75427;SDS011;64008;55.612;37.698;2023-04-25T04:40:47;11.90;;;5.57;;
75427;SDS011;64008;55.612;37.698;2023-04-25T04:43:13;8.80;;;4.63;;
75427;SDS011;64008;55.612;37.698;2023-04-25T04:45:42;10.43;;;4.60;;
75427;SDS011;64008;55.612;37.698;2023-04-25T04:48:08;8.02;;;4.68;;
75427;SDS011;64008;55.612;37.698;2023-04-25T04:50:33;9.65;;;5.40;;
75427;SDS011;64008;55.612;37.698;2023-04-25T04:53:00;10.98;;;4.93;;
75427;SDS011;64008;55.612;37.698;2023-04-25T04:55:27;13.57;;;4.75;;
75427;SDS011;64008;55.612;37.698;2023-04-25T04:57:52;9.52;;;4.55;;
75427;SDS011;64008;55.612;37.698;2023-04-25T05:00:18;8.23;;;4.38;;
75427;SDS011;64008;55.612;37.698;2023-04-25T05:02:44;10.30;;;4.65;;
75427;SDS011;64008;55.612;37.698;2023-04-25T05:05:09;12.10;;;5.05;;
75427;SDS011;64008;55.612;37.698;2023-04-25T05:07:35;13.25;;;5.45;;
75427;SDS011;64008;55.612;37.698;2023-04-25T05:10:01;10.77;;;5.20;;
75427;SDS011;64008;55.612;37.698;2023-04-25T05:12:27;13.07;;;5.43;;
75427;SDS011;64008;55.612;37.698;2023-04-25T05:14:52;10.85;;;5.03;;
75427;SDS011;64008;55.612;37.698;2023-04-25T05:17:18;11.45;;;4.72;;
75427;SDS011;64008;55.612;37.698;2023-04-25T05:19:43;15.90;;;6.05;;
75427;SDS011;64008;55.612;37.698;2023-04-25T05:22:09;11.48;;;5.40;;
75427;SDS011;64008;55.612;37.698;2023-04-25T05:24:34;11.68;;;5.20;;
75427;SDS011;64008;55.612;37.698;2023-04-25T05:27:00;14.27;;;6.10;;
75427;SDS011;64008;55.612;37.698;2023-04-25T05:29:25;11.18;;;5.47;;
75427;SDS011;64008;55.612;37.698;2023-04-25T05:31:51;14.45;;;5.65;;
75427;SDS011;64008;55.612;37.698;2023-04-25T05:34:16;14.05;;;6.38;;
75427;SDS011;64008;55.612;37.698;2023-04-25T05:36:42;10.25;;;5.28;;
75427;SDS011;64008;55.612;37.698;2023-04-25T05:39:07;11.00;;;5.25;;
75427;SDS011;64008;55.612;37.698;2023-04-25T05:41:34;12.77;;;5.45;;
75427;SDS011;64008;55.612;37.698;2023-04-25T05:43:59;12.43;;;5.72;;
75427;SDS011;64008;55.612;37.698;2023-04-25T05:46:25;10.93;;;5.53;;
75427;SDS011;64008;55.612;37.698;2023-04-25T05:48:50;13.23;;;5.40;;
75427;SDS011;64008;55.612;37.698;2023-04-25T05:51:16;15.32;;;6.55;;
75427;SDS011;64008;55.612;37.698;2023-04-25T05:53:43;13.00;;;6.28;;
75427;SDS011;64008;55.612;37.698;2023-04-25T05:56:08;13.73;;;6.32;;
75427;SDS011;64008;55.612;37.698;2023-04-25T05:58:34;10.98;;;6.18;;
75427;SDS011;64008;55.612;37.698;2023-04-25T06:01:00;14.23;;;5.90;;
75427;SDS011;64008;55.612;37.698;2023-04-25T06:03:25;21.25;;;6.50;;
75427;SDS011;64008;55.612;37.698;2023-04-25T06:05:51;10.75;;;6.18;;
75427;SDS011;64008;55.612;37.698;2023-04-25T06:08:16;18.95;;;5.75;;
75427;SDS011;64008;55.612;37.698;2023-04-25T06:10:42;12.38;;;5.30;;
75427;SDS011;64008;55.612;37.698;2023-04-25T06:13:07;10.18;;;5.20;;
75427;SDS011;64008;55.612;37.698;2023-04-25T06:15:33;14.10;;;5.72;;
75427;SDS011;64008;55.612;37.698;2023-04-25T06:17:58;12.45;;;5.32;;
75427;SDS011;64008;55.612;37.698;2023-04-25T06:20:24;9.82;;;5.07;;
75427;SDS011;64008;55.612;37.698;2023-04-25T06:22:50;12.43;;;4.97;;
75427;SDS011;64008;55.612;37.698;2023-04-25T06:25:16;11.50;;;4.68;;
75427;SDS011;64008;55.612;37.698;2023-04-25T06:27:42;13.07;;;5.10;;
75427;SDS011;64008;55.612;37.698;2023-04-25T06:30:08;11.63;;;4.30;;
75427;SDS011;64008;55.612;37.698;2023-04-25T06:32:34;12.52;;;4.82;;
75427;SDS011;64008;55.612;37.698;2023-04-25T06:35:00;12.63;;;4.85;;
75427;SDS011;64008;55.612;37.698;2023-04-25T06:37:26;11.55;;;4.60;;
75427;SDS011;64008;55.612;37.698;2023-04-25T06:39:51;12.60;;;4.30;;
75427;SDS011;64008;55.612;37.698;2023-04-25T06:42:17;9.50;;;4.55;;
75427;SDS011;64008;55.612;37.698;2023-04-25T06:44:43;9.77;;;4.97;;
75427;SDS011;64008;55.612;37.698;2023-04-25T06:47:08;10.02;;;4.45;;
75427;SDS011;64008;55.612;37.698;2023-04-25T06:49:34;9.70;;;4.10;;
75427;SDS011;64008;55.612;37.698;2023-04-25T06:51:59;12.68;;;4.25;;
75427;SDS011;64008;55.612;37.698;2023-04-25T06:54:25;11.18;;;4.88;;
75427;SDS011;64008;55.612;37.698;2023-04-25T06:56:52;11.13;;;4.35;;
75427;SDS011;64008;55.612;37.698;2023-04-25T06:59:18;10.25;;;3.60;;
75427;SDS011;64008;55.612;37.698;2023-04-25T07:01:44;6.50;;;2.80;;
75427;SDS011;64008;55.612;37.698;2023-04-25T07:04:09;6.18;;;2.90;;
75427;SDS011;64008;55.612;37.698;2023-04-25T07:06:35;10.13;;;2.75;;
75427;SDS011;64008;55.612;37.698;2023-04-25T07:09:03;8.98;;;3.00;;
75427;SDS011;64008;55.612;37.698;2023-04-25T07:13:55;10.03;;;2.80;;
75427;SDS011;64008;55.612;37.698;2023-04-25T07:16:20;7.88;;;2.70;;
75427;SDS011;64008;55.612;37.698;2023-04-25T07:18:46;5.55;;;2.30;;
75427;SDS011;64008;55.612;37.698;2023-04-25T07:21:11;5.28;;;2.50;;
75427;SDS011;64008;55.612;37.698;2023-04-25T07:23:37;6.60;;;2.30;;
75427;SDS011;64008;55.612;37.698;2023-04-25T07:26:05;6.20;;;2.47;;
75427;SDS011;64008;55.612;37.698;2023-04-25T07:28:31;5.30;;;2.38;;
75427;SDS011;64008;55.612;37.698;2023-04-25T07:30:57;6.97;;;2.78;;
75427;SDS011;64008;55.612;37.698;2023-04-25T07:33:23;8.45;;;2.40;;
75427;SDS011;64008;55.612;37.698;2023-04-25T07:35:48;7.40;;;2.10;;
75427;SDS011;64008;55.612;37.698;2023-04-25T07:38:15;6.65;;;2.60;;
75427;SDS011;64008;55.612;37.698;2023-04-25T07:40:40;5.90;;;2.28;;
75427;SDS011;64008;55.612;37.698;2023-04-25T07:43:06;9.73;;;2.58;;
75427;SDS011;64008;55.612;37.698;2023-04-25T07:45:31;5.93;;;2.03;;
75427;SDS011;64008;55.612;37.698;2023-04-25T07:47:57;9.00;;;2.60;;
75427;SDS011;64008;55.612;37.698;2023-04-25T07:50:22;5.63;;;2.13;;
75427;SDS011;64008;55.612;37.698;2023-04-25T07:52:48;7.93;;;3.70;;
75427;SDS011;64008;55.612;37.698;2023-04-25T07:55:14;9.73;;;2.97;;
75427;SDS011;64008;55.612;37.698;2023-04-25T07:57:39;6.05;;;2.80;;
75427;SDS011;64008;55.612;37.698;2023-04-25T08:00:05;5.70;;;2.42;;
75427;SDS011;64008;55.612;37.698;2023-04-25T08:02:34;5.47;;;2.28;;
75427;SDS011;64008;55.612;37.698;2023-04-25T08:05:01;7.00;;;2.00;;
75427;SDS011;64008;55.612;37.698;2023-04-25T08:07:27;4.47;;;2.00;;
75427;SDS011;64008;55.612;37.698;2023-04-25T08:09:53;6.78;;;2.50;;
75427;SDS011;64008;55.612;37.698;2023-04-25T08:14:44;7.03;;;2.10;;
75427;SDS011;64008;55.612;37.698;2023-04-25T08:17:10;4.65;;;1.92;;
75427;SDS011;64008;55.612;37.698;2023-04-25T08:19:35;5.07;;;1.92;;
75427;SDS011;64008;55.612;37.698;2023-04-25T08:22:01;8.25;;;2.42;;
75427;SDS011;64008;55.612;37.698;2023-04-25T08:24:26;4.95;;;2.08;;
75427;SDS011;64008;55.612;37.698;2023-04-25T08:26:52;7.13;;;2.22;;
75427;SDS011;64008;55.612;37.698;2023-04-25T08:29:17;7.93;;;3.90;;
75427;SDS011;64008;55.612;37.698;2023-04-25T08:31:43;5.30;;;2.50;;
75427;SDS011;64008;55.612;37.698;2023-04-25T08:34:10;7.50;;;2.25;;
75427;SDS011;64008;55.612;37.698;2023-04-25T08:36:36;6.32;;;2.30;;
75427;SDS011;64008;55.612;37.698;2023-04-25T08:39:01;5.78;;;2.30;;
75427;SDS011;64008;55.612;37.698;2023-04-25T08:41:27;11.18;;;2.28;;
75427;SDS011;64008;55.612;37.698;2023-04-25T08:43:53;4.88;;;2.13;;
75427;SDS011;64008;55.612;37.698;2023-04-25T08:46:21;6.50;;;2.42;;
75427;SDS011;64008;55.612;37.698;2023-04-25T08:48:48;7.68;;;2.42;;
75427;SDS011;64008;55.612;37.698;2023-04-25T08:51:21;5.90;;;2.53;;
75427;SDS011;64008;55.612;37.698;2023-04-25T08:53:50;5.40;;;2.10;;
75427;SDS011;64008;55.612;37.698;2023-04-25T08:56:17;9.40;;;2.13;;
75427;SDS011;64008;55.612;37.698;2023-04-25T08:58:45;6.65;;;2.25;;
75427;SDS011;64008;55.612;37.698;2023-04-25T09:01:13;6.70;;;2.13;;
75427;SDS011;64008;55.612;37.698;2023-04-25T09:03:39;5.95;;;2.42;;
75427;SDS011;64008;55.612;37.698;2023-04-25T09:06:05;5.78;;;2.80;;
75427;SDS011;64008;55.612;37.698;2023-04-25T09:08:30;5.00;;;2.55;;
75427;SDS011;64008;55.612;37.698;2023-04-25T09:10:56;8.65;;;2.90;;
75427;SDS011;64008;55.612;37.698;2023-04-25T09:13:26;9.90;;;2.50;;
75427;SDS011;64008;55.612;37.698;2023-04-25T09:15:54;4.80;;;2.20;;
75427;SDS011;64008;55.612;37.698;2023-04-25T09:18:24;6.53;;;2.70;;
75427;SDS011;64008;55.612;37.698;2023-04-25T09:20:53;6.13;;;2.38;;
75427;SDS011;64008;55.612;37.698;2023-04-25T09:23:20;9.02;;;2.40;;
75427;SDS011;64008;55.612;37.698;2023-04-25T09:25:47;5.05;;;2.20;;
75427;SDS011;64008;55.612;37.698;2023-04-25T09:28:17;5.72;;;1.90;;
75427;SDS011;64008;55.612;37.698;2023-04-25T09:30:52;6.53;;;2.60;;
75427;SDS011;64008;55.612;37.698;2023-04-25T09:33:20;4.93;;;2.33;;
75427;SDS011;64008;55.612;37.698;2023-04-25T09:35:52;7.10;;;2.10;;
75427;SDS011;64008;55.612;37.698;2023-04-25T09:38:20;5.07;;;2.22;;
75427;SDS011;64008;55.612;37.698;2023-04-25T09:40:46;9.98;;;2.30;;
75427;SDS011;64008;55.612;37.698;2023-04-25T09:43:21;7.60;;;2.10;;
75427;SDS011;64008;55.612;37.698;2023-04-25T09:45:47;7.40;;;2.30;;
75427;SDS011;64008;55.612;37.698;2023-04-25T09:48:18;7.15;;;2.20;;
75427;SDS011;64008;55.612;37.698;2023-04-25T09:50:45;5.22;;;1.98;;
75427;SDS011;64008;55.612;37.698;2023-04-25T09:53:34;5.93;;;1.80;;
75427;SDS011;64008;55.612;37.698;2023-04-25T09:56:03;4.75;;;1.90;;
75427;SDS011;64008;55.612;37.698;2023-04-25T09:58:30;6.93;;;1.85;;
75427;SDS011;64008;55.612;37.698;2023-04-25T10:01:00;6.53;;;2.45;;
75427;SDS011;64008;55.612;37.698;2023-04-25T10:03:29;6.03;;;1.95;;
75427;SDS011;64008;55.612;37.698;2023-04-25T10:05:57;8.30;;;2.90;;
75427;SDS011;64008;55.612;37.698;2023-04-25T10:08:24;6.63;;;2.08;;
75427;SDS011;64008;55.612;37.698;2023-04-25T10:10:52;4.45;;;1.73;;
75427;SDS011;64008;55.612;37.698;2023-04-25T10:13:17;7.60;;;2.10;;
75427;SDS011;64008;55.612;37.698;2023-04-25T10:18:10;6.68;;;2.10;;
75427;SDS011;64008;55.612;37.698;2023-04-25T10:20:36;7.78;;;1.73;;
75427;SDS011;64008;55.612;37.698;2023-04-25T10:23:12;4.53;;;1.60;;
75427;SDS011;64008;55.612;37.698;2023-04-25T10:25:38;9.40;;;1.92;;
75427;SDS011;64008;55.612;37.698;2023-04-25T10:28:05;6.35;;;1.90;;
75427;SDS011;64008;55.612;37.698;2023-04-25T10:30:31;5.28;;;2.10;;
75427;SDS011;64008;55.612;37.698;2023-04-25T10:32:58;4.13;;;1.90;;
75427;SDS011;64008;55.612;37.698;2023-04-25T10:35:27;7.97;;;1.73;;
75427;SDS011;64008;55.612;37.698;2023-04-25T10:38:05;4.45;;;1.85;;
75427;SDS011;64008;55.612;37.698;2023-04-25T10:40:34;6.05;;;1.75;;
75427;SDS011;64008;55.612;37.698;2023-04-25T10:43:46;7.13;;;1.77;;
75427;SDS011;64008;55.612;37.698;2023-04-25T10:48:38;6.60;;;2.03;;
75427;SDS011;64008;55.612;37.698;2023-04-25T10:51:14;5.35;;;1.70;;
75427;SDS011;64008;55.612;37.698;2023-04-25T10:53:46;4.55;;;1.65;;
75427;SDS011;64008;55.612;37.698;2023-04-25T10:56:19;5.03;;;1.90;;
75427;SDS011;64008;55.612;37.698;2023-04-25T10:58:46;4.60;;;1.67;;
75427;SDS011;64008;55.612;37.698;2023-04-25T11:01:15;4.50;;;1.70;;
75427;SDS011;64008;55.612;37.698;2023-04-25T11:03:45;6.15;;;1.80;;
75427;SDS011;64008;55.612;37.698;2023-04-25T11:06:18;7.13;;;1.52;;
75427;SDS011;64008;55.612;37.698;2023-04-25T11:08:48;3.88;;;1.50;;
75427;SDS011;64008;55.612;37.698;2023-04-25T11:11:16;3.17;;;1.25;;
75427;SDS011;64008;55.612;37.698;2023-04-25T11:13:43;8.55;;;1.60;;
75427;SDS011;64008;55.612;37.698;2023-04-25T11:16:08;5.63;;;1.35;;
75427;SDS011;64008;55.612;37.698;2023-04-25T11:18:34;6.43;;;1.60;;
75427;SDS011;64008;55.612;37.698;2023-04-25T11:21:00;3.72;;;1.35;;
75427;SDS011;64008;55.612;37.698;2023-04-25T11:23:26;4.43;;;1.50;;
75427;SDS011;64008;55.612;37.698;2023-04-25T11:25:54;3.72;;;1.50;;
75427;SDS011;64008;55.612;37.698;2023-04-25T11:28:21;3.92;;;1.20;;
75427;SDS011;64008;55.612;37.698;2023-04-25T11:30:50;5.10;;;1.30;;
75427;SDS011;64008;55.612;37.698;2023-04-25T11:33:16;4.70;;;1.60;;
75427;SDS011;64008;55.612;37.698;2023-04-25T11:35:42;4.80;;;1.50;;
75427;SDS011;64008;55.612;37.698;2023-04-25T11:38:07;4.47;;;1.70;;
75427;SDS011;64008;55.612;37.698;2023-04-25T11:40:34;4.93;;;1.75;;
75427;SDS011;64008;55.612;37.698;2023-04-25T11:43:01;5.03;;;1.45;;
75427;SDS011;64008;55.612;37.698;2023-04-25T11:45:27;7.03;;;1.85;;
75427;SDS011;64008;55.612;37.698;2023-04-25T11:47:54;3.83;;;1.80;;
75427;SDS011;64008;55.612;37.698;2023-04-25T11:50:20;5.90;;;1.67;;
75427;SDS011;64008;55.612;37.698;2023-04-25T11:52:46;4.05;;;1.58;;
75427;SDS011;64008;55.612;37.698;2023-04-25T11:55:17;5.28;;;1.65;;
75427;SDS011;64008;55.612;37.698;2023-04-25T11:57:45;5.72;;;1.73;;
75427;SDS011;64008;55.612;37.698;2023-04-25T12:00:13;4.25;;;1.73;;
75427;SDS011;64008;55.612;37.698;2023-04-25T12:02:44;5.68;;;1.60;;
75427;SDS011;64008;55.612;37.698;2023-04-25T12:05:14;7.70;;;1.85;;
75427;SDS011;64008;55.612;37.698;2023-04-25T12:07:43;7.30;;;1.88;;
75427;SDS011;64008;55.612;37.698;2023-04-25T12:10:10;5.82;;;1.80;;
75427;SDS011;64008;55.612;37.698;2023-04-25T12:12:38;4.35;;;1.75;;
75427;SDS011;64008;55.612;37.698;2023-04-25T12:17:44;4.00;;;1.80;;
75427;SDS011;64008;55.612;37.698;2023-04-25T12:20:24;4.68;;;1.70;;
75427;SDS011;64008;55.612;37.698;2023-04-25T12:22:51;4.03;;;1.80;;
75427;SDS011;64008;55.612;37.698;2023-04-25T12:28:17;7.00;;;2.00;;
75427;SDS011;64008;55.612;37.698;2023-04-25T12:33:30;6.45;;;1.85;;
75427;SDS011;64008;55.612;37.698;2023-04-25T12:36:00;4.25;;;1.73;;
75427;SDS011;64008;55.612;37.698;2023-04-25T12:38:35;8.25;;;2.10;;
75427;SDS011;64008;55.612;37.698;2023-04-25T12:41:03;5.60;;;2.30;;
75427;SDS011;64008;55.612;37.698;2023-04-25T12:43:28;5.25;;;2.15;;
75427;SDS011;64008;55.612;37.698;2023-04-25T12:45:54;5.40;;;1.92;;
75427;SDS011;64008;55.612;37.698;2023-04-25T12:48:21;7.97;;;1.80;;
75427;SDS011;64008;55.612;37.698;2023-04-25T12:50:48;4.95;;;2.03;;
75427;SDS011;64008;55.612;37.698;2023-04-25T12:53:16;6.68;;;2.05;;
75427;SDS011;64008;55.612;37.698;2023-04-25T12:55:43;5.60;;;2.40;;
75427;SDS011;64008;55.612;37.698;2023-04-25T12:58:11;6.15;;;2.15;;
75427;SDS011;64008;55.612;37.698;2023-04-25T13:00:36;5.95;;;2.20;;
75427;SDS011;64008;55.612;37.698;2023-04-25T13:03:02;4.18;;;1.67;;
75427;SDS011;64008;55.612;37.698;2023-04-25T13:05:28;7.28;;;2.08;;
75427;SDS011;64008;55.612;37.698;2023-04-25T13:07:55;5.97;;;2.00;;
75427;SDS011;64008;55.612;37.698;2023-04-25T13:10:20;4.85;;;1.85;;
75427;SDS011;64008;55.612;37.698;2023-04-25T13:12:46;7.57;;;2.15;;
75427;SDS011;64008;55.612;37.698;2023-04-25T13:15:12;6.38;;;2.05;;
75427;SDS011;64008;55.612;37.698;2023-04-25T13:17:37;7.18;;;1.88;;
75427;SDS011;64008;55.612;37.698;2023-04-25T13:20:04;5.38;;;1.90;;
75427;SDS011;64008;55.612;37.698;2023-04-25T13:22:37;14.75;;;2.00;;
75427;SDS011;64008;55.612;37.698;2023-04-25T13:25:04;8.73;;;2.22;;
75427;SDS011;64008;55.612;37.698;2023-04-25T13:27:32;5.70;;;1.80;;
75427;SDS011;64008;55.612;37.698;2023-04-25T13:30:02;5.35;;;1.70;;
75427;SDS011;64008;55.612;37.698;2023-04-25T13:32:35;4.28;;;1.67;;
75427;SDS011;64008;55.612;37.698;2023-04-25T13:35:04;5.93;;;1.70;;
75427;SDS011;64008;55.612;37.698;2023-04-25T13:37:30;5.20;;;1.90;;
75427;SDS011;64008;55.612;37.698;2023-04-25T13:40:02;4.78;;;1.92;;
75427;SDS011;64008;55.612;37.698;2023-04-25T13:42:30;5.82;;;2.05;;
75427;SDS011;64008;55.612;37.698;2023-04-25T13:44:58;5.07;;;1.58;;
75427;SDS011;64008;55.612;37.698;2023-04-25T13:47:26;4.70;;;2.00;;
75427;SDS011;64008;55.612;37.698;2023-04-25T13:49:52;6.40;;;1.75;;
75427;SDS011;64008;55.612;37.698;2023-04-25T13:52:18;4.75;;;1.90;;
75427;SDS011;64008;55.612;37.698;2023-04-25T13:54:43;4.45;;;1.70;;
75427;SDS011;64008;55.612;37.698;2023-04-25T13:57:09;5.00;;;2.00;;
75427;SDS011;64008;55.612;37.698;2023-04-25T13:59:36;4.88;;;1.88;;
75427;SDS011;64008;55.612;37.698;2023-04-25T14:02:02;5.15;;;1.83;;
75427;SDS011;64008;55.612;37.698;2023-04-25T14:04:28;5.70;;;2.33;;
75427;SDS011;64008;55.612;37.698;2023-04-25T14:06:53;6.07;;;2.67;;
75427;SDS011;64008;55.612;37.698;2023-04-25T14:09:20;5.35;;;2.10;;
75427;SDS011;64008;55.612;37.698;2023-04-25T14:11:53;5.30;;;2.22;;
75427;SDS011;64008;55.612;37.698;2023-04-25T14:14:19;5.47;;;2.50;;
75427;SDS011;64008;55.612;37.698;2023-04-25T14:19:13;4.90;;;2.13;;
75427;SDS011;64008;55.612;37.698;2023-04-25T14:21:39;5.60;;;1.90;;
75427;SDS011;64008;55.612;37.698;2023-04-25T14:24:05;4.95;;;2.58;;
75427;SDS011;64008;55.612;37.698;2023-04-25T14:26:31;8.57;;;2.40;;
75427;SDS011;64008;55.612;37.698;2023-04-25T14:28:58;6.97;;;2.13;;
75427;SDS011;64008;55.612;37.698;2023-04-25T14:31:24;6.07;;;2.90;;
75427;SDS011;64008;55.612;37.698;2023-04-25T14:33:49;4.78;;;2.53;;
75427;SDS011;64008;55.612;37.698;2023-04-25T14:36:15;8.55;;;2.72;;
75427;SDS011;64008;55.612;37.698;2023-04-25T14:38:41;7.45;;;2.50;;
75427;SDS011;64008;55.612;37.698;2023-04-25T14:41:06;6.03;;;2.45;;
75427;SDS011;64008;55.612;37.698;2023-04-25T14:43:32;6.47;;;2.42;;
75427;SDS011;64008;55.612;37.698;2023-04-25T14:45:57;4.63;;;2.10;;
75427;SDS011;64008;55.612;37.698;2023-04-25T14:48:23;6.72;;;2.22;;